sensor_id;sensor_type;location;lat;lon;timestamp;P1;durP1;ratioP1;P2;durP2;ratioP2
15449;SDS011;7826;49.784;9.934;2023-05-07T00:02:05;15.97;;;12.17;;
15449;SDS011;7826;49.784;9.934;2023-05-07T00:04:31;14.27;;;11.00;;
15449;SDS011;7826;49.784;9.934;2023-05-07T00:07:02;16.80;;;11.73;;
15449;SDS011;7826;49.784;9.934;2023-05-07T00:09:30;15.77;;;11.20;;
15449;SDS011;7826;49.784;9.934;2023-05-07T00:11:56;14.47;;;11.10;;
15449;SDS011;7826;49.784;9.934;2023-05-07T00:14:22;16.10;;;12.53;;
15449;SDS011;7826;49.784;9.934;2023-05-07T00:16:49;16.40;;;11.50;;
15449;SDS011;7826;49.784;9.934;2023-05-07T00:19:15;18.33;;;12.40;;
15449;SDS011;7826;49.784;9.934;2023-05-07T00:21:42;18.13;;;12.40;;
15449;SDS011;7826;49.784;9.934;2023-05-07T00:24:08;15.87;;;11.87;;
15449;SDS011;7826;49.784;9.934;2023-05-07T00:26:34;15.40;;;12.23;;
15449;SDS011;7826;49.784;9.934;2023-05-07T00:29:00;14.90;;;11.83;;
15449;SDS011;7826;49.784;9.934;2023-05-07T00:31:27;13.73;;;11.33;;
15449;SDS011;7826;49.784;9.934;2023-05-07T00:33:53;15.33;;;11.30;;
15449;SDS011;7826;49.784;9.934;2023-05-07T00:36:19;15.83;;;11.83;;
15449;SDS011;7826;49.784;9.934;2023-05-07T00:38:45;13.70;;;11.00;;
15449;SDS011;7826;49.784;9.934;2023-05-07T00:41:12;13.67;;;11.10;;
15449;SDS011;7826;49.784;9.934;2023-05-07T00:43:38;12.47;;;10.03;;
15449;SDS011;7826;49.784;9.934;2023-05-07T00:46:04;18.07;;;10.83;;
15449;SDS011;7826;49.784;9.934;2023-05-07T00:48:31;14.77;;;11.10;;
15449;SDS011;7826;49.784;9.934;2023-05-07T00:50:58;14.50;;;10.27;;
15449;SDS011;7826;49.784;9.934;2023-05-07T00:53:25;11.83;;;10.00;;
15449;SDS011;7826;49.784;9.934;2023-05-07T00:55:52;15.43;;;11.33;;
15449;SDS011;7826;49.784;9.934;2023-05-07T00:58:19;12.97;;;10.77;;
15449;SDS011;7826;49.784;9.934;2023-05-07T01:00:46;15.43;;;9.70;;
15449;SDS011;7826;49.784;9.934;2023-05-07T01:03:13;11.47;;;9.53;;
15449;SDS011;7826;49.784;9.934;2023-05-07T01:05:39;13.10;;;10.07;;
15449;SDS011;7826;49.784;9.934;2023-05-07T01:08:06;14.07;;;10.77;;
15449;SDS011;7826;49.784;9.934;2023-05-07T01:10:32;12.20;;;9.87;;
15449;SDS011;7826;49.784;9.934;2023-05-07T01:12:59;12.77;;;10.00;;
15449;SDS011;7826;49.784;9.934;2023-05-07T01:15:26;13.63;;;10.10;;
15449;SDS011;7826;49.784;9.934;2023-05-07T01:17:52;11.73;;;9.80;;
15449;SDS011;7826;49.784;9.934;2023-05-07T01:20:19;14.43;;;10.60;;
15449;SDS011;7826;49.784;9.934;2023-05-07T01:22:45;11.63;;;9.83;;
15449;SDS011;7826;49.784;9.934;2023-05-07T01:25:12;11.37;;;9.67;;
15449;SDS011;7826;49.784;9.934;2023-05-07T01:27:39;12.80;;;9.73;;
15449;SDS011;7826;49.784;9.934;2023-05-07T01:30:06;12.57;;;10.37;;
15449;SDS011;7826;49.784;9.934;2023-05-07T01:32:38;12.73;;;8.70;;
15449;SDS011;7826;49.784;9.934;2023-05-07T01:35:10;12.67;;;9.17;;
15449;SDS011;7826;49.784;9.934;2023-05-07T01:37:39;12.40;;;9.83;;
15449;SDS011;7826;49.784;9.934;2023-05-07T01:40:06;11.77;;;10.27;;
15449;SDS011;7826;49.784;9.934;2023-05-07T01:42:33;13.97;;;9.80;;
15449;SDS011;7826;49.784;9.934;2023-05-07T01:44:59;12.30;;;9.43;;
15449;SDS011;7826;49.784;9.934;2023-05-07T01:47:26;11.97;;;9.33;;
15449;SDS011;7826;49.784;9.934;2023-05-07T01:49:52;15.00;;;10.10;;
15449;SDS011;7826;49.784;9.934;2023-05-07T01:52:19;12.67;;;9.40;;
15449;SDS011;7826;49.784;9.934;2023-05-07T01:54:45;12.00;;;9.87;;
15449;SDS011;7826;49.784;9.934;2023-05-07T01:57:11;10.30;;;9.03;;
15449;SDS011;7826;49.784;9.934;2023-05-07T01:59:37;10.10;;;9.03;;
15449;SDS011;7826;49.784;9.934;2023-05-07T02:02:04;12.93;;;9.40;;
15449;SDS011;7826;49.784;9.934;2023-05-07T02:04:30;11.90;;;9.30;;
15449;SDS011;7826;49.784;9.934;2023-05-07T02:06:56;12.50;;;8.80;;
15449;SDS011;7826;49.784;9.934;2023-05-07T02:09:22;11.27;;;9.20;;
15449;SDS011;7826;49.784;9.934;2023-05-07T02:11:49;11.37;;;9.13;;
15449;SDS011;7826;49.784;9.934;2023-05-07T02:14:15;12.50;;;9.43;;
15449;SDS011;7826;49.784;9.934;2023-05-07T02:16:41;10.47;;;9.10;;
15449;SDS011;7826;49.784;9.934;2023-05-07T02:19:08;11.80;;;9.50;;
15449;SDS011;7826;49.784;9.934;2023-05-07T02:21:34;11.67;;;9.60;;
15449;SDS011;7826;49.784;9.934;2023-05-07T02:24:00;10.57;;;8.77;;
15449;SDS011;7826;49.784;9.934;2023-05-07T02:26:26;10.53;;;8.90;;
15449;SDS011;7826;49.784;9.934;2023-05-07T02:28:52;10.57;;;9.33;;
15449;SDS011;7826;49.784;9.934;2023-05-07T02:31:19;10.27;;;8.33;;
15449;SDS011;7826;49.784;9.934;2023-05-07T02:33:45;9.17;;;8.17;;
15449;SDS011;7826;49.784;9.934;2023-05-07T02:36:12;11.13;;;9.33;;
15449;SDS011;7826;49.784;9.934;2023-05-07T02:38:38;10.87;;;8.60;;
15449;SDS011;7826;49.784;9.934;2023-05-07T02:41:04;13.27;;;8.30;;
15449;SDS011;7826;49.784;9.934;2023-05-07T02:43:30;12.83;;;8.40;;
15449;SDS011;7826;49.784;9.934;2023-05-07T02:46:03;9.93;;;8.73;;
15449;SDS011;7826;49.784;9.934;2023-05-07T02:48:30;10.80;;;8.40;;
15449;SDS011;7826;49.784;9.934;2023-05-07T02:50:57;10.93;;;8.67;;
15449;SDS011;7826;49.784;9.934;2023-05-07T02:53:24;12.67;;;8.87;;
15449;SDS011;7826;49.784;9.934;2023-05-07T02:55:55;11.13;;;9.53;;
15449;SDS011;7826;49.784;9.934;2023-05-07T02:58:22;10.97;;;8.93;;
15449;SDS011;7826;49.784;9.934;2023-05-07T03:00:49;10.33;;;8.60;;
15449;SDS011;7826;49.784;9.934;2023-05-07T03:03:15;10.27;;;9.03;;
15449;SDS011;7826;49.784;9.934;2023-05-07T03:05:42;10.60;;;8.27;;
15449;SDS011;7826;49.784;9.934;2023-05-07T03:08:09;11.07;;;8.67;;
15449;SDS011;7826;49.784;9.934;2023-05-07T03:10:36;9.97;;;8.73;;
15449;SDS011;7826;49.784;9.934;2023-05-07T03:13:02;9.53;;;8.57;;
15449;SDS011;7826;49.784;9.934;2023-05-07T03:15:29;13.77;;;8.93;;
15449;SDS011;7826;49.784;9.934;2023-05-07T03:17:56;9.73;;;8.30;;
15449;SDS011;7826;49.784;9.934;2023-05-07T03:20:22;10.27;;;8.63;;
15449;SDS011;7826;49.784;9.934;2023-05-07T03:22:48;9.90;;;8.90;;
15449;SDS011;7826;49.784;9.934;2023-05-07T03:25:14;9.97;;;8.30;;
15449;SDS011;7826;49.784;9.934;2023-05-07T03:27:41;10.17;;;8.03;;
15449;SDS011;7826;49.784;9.934;2023-05-07T03:30:10;8.93;;;7.40;;
15449;SDS011;7826;49.784;9.934;2023-05-07T03:32:37;9.53;;;8.53;;
15449;SDS011;7826;49.784;9.934;2023-05-07T03:35:03;8.93;;;7.47;;
15449;SDS011;7826;49.784;9.934;2023-05-07T03:37:30;9.17;;;7.70;;
15449;SDS011;7826;49.784;9.934;2023-05-07T03:39:56;9.20;;;7.70;;
15449;SDS011;7826;49.784;9.934;2023-05-07T03:42:23;10.70;;;8.00;;
15449;SDS011;7826;49.784;9.934;2023-05-07T03:44:49;10.27;;;8.77;;
15449;SDS011;7826;49.784;9.934;2023-05-07T03:47:15;11.73;;;8.90;;
15449;SDS011;7826;49.784;9.934;2023-05-07T03:49:41;11.07;;;8.90;;
15449;SDS011;7826;49.784;9.934;2023-05-07T03:52:08;11.17;;;8.97;;
15449;SDS011;7826;49.784;9.934;2023-05-07T03:54:34;11.73;;;8.73;;
15449;SDS011;7826;49.784;9.934;2023-05-07T03:57:00;9.80;;;8.33;;
15449;SDS011;7826;49.784;9.934;2023-05-07T03:59:27;9.37;;;8.40;;
15449;SDS011;7826;49.784;9.934;2023-05-07T04:01:53;11.70;;;8.90;;
15449;SDS011;7826;49.784;9.934;2023-05-07T04:04:20;12.40;;;9.30;;
15449;SDS011;7826;49.784;9.934;2023-05-07T04:06:47;11.30;;;8.57;;
15449;SDS011;7826;49.784;9.934;2023-05-07T04:09:13;11.23;;;8.60;;
15449;SDS011;7826;49.784;9.934;2023-05-07T04:11:39;10.33;;;9.23;;
15449;SDS011;7826;49.784;9.934;2023-05-07T04:14:06;11.43;;;8.30;;
15449;SDS011;7826;49.784;9.934;2023-05-07T04:16:32;10.50;;;8.87;;
15449;SDS011;7826;49.784;9.934;2023-05-07T04:19:00;10.93;;;9.33;;
15449;SDS011;7826;49.784;9.934;2023-05-07T04:21:26;11.77;;;8.60;;
15449;SDS011;7826;49.784;9.934;2023-05-07T04:23:53;10.87;;;8.87;;
15449;SDS011;7826;49.784;9.934;2023-05-07T04:26:19;10.27;;;8.70;;
15449;SDS011;7826;49.784;9.934;2023-05-07T04:28:46;9.17;;;8.13;;
15449;SDS011;7826;49.784;9.934;2023-05-07T04:31:13;10.27;;;8.33;;
15449;SDS011;7826;49.784;9.934;2023-05-07T04:33:39;9.47;;;8.03;;
15449;SDS011;7826;49.784;9.934;2023-05-07T04:36:05;11.07;;;8.70;;
15449;SDS011;7826;49.784;9.934;2023-05-07T04:38:32;11.27;;;8.50;;
15449;SDS011;7826;49.784;9.934;2023-05-07T04:41:02;10.97;;;8.50;;
15449;SDS011;7826;49.784;9.934;2023-05-07T04:43:29;10.20;;;8.87;;
15449;SDS011;7826;49.784;9.934;2023-05-07T04:45:55;9.40;;;8.13;;
15449;SDS011;7826;49.784;9.934;2023-05-07T04:48:22;10.47;;;8.60;;
15449;SDS011;7826;49.784;9.934;2023-05-07T04:50:48;12.97;;;8.73;;
15449;SDS011;7826;49.784;9.934;2023-05-07T04:53:15;10.60;;;9.20;;
15449;SDS011;7826;49.784;9.934;2023-05-07T04:55:42;10.43;;;8.50;;
15449;SDS011;7826;49.784;9.934;2023-05-07T04:58:09;12.13;;;8.63;;
15449;SDS011;7826;49.784;9.934;2023-05-07T05:00:35;11.40;;;9.67;;
15449;SDS011;7826;49.784;9.934;2023-05-07T05:03:02;10.53;;;9.27;;
15449;SDS011;7826;49.784;9.934;2023-05-07T05:05:28;10.77;;;8.50;;
15449;SDS011;7826;49.784;9.934;2023-05-07T05:07:55;10.90;;;9.27;;
15449;SDS011;7826;49.784;9.934;2023-05-07T05:10:21;10.60;;;9.30;;
15449;SDS011;7826;49.784;9.934;2023-05-07T05:12:47;11.23;;;8.93;;
15449;SDS011;7826;49.784;9.934;2023-05-07T05:15:14;10.50;;;8.87;;
15449;SDS011;7826;49.784;9.934;2023-05-07T05:17:40;11.03;;;8.80;;
15449;SDS011;7826;49.784;9.934;2023-05-07T05:20:07;10.83;;;9.63;;
15449;SDS011;7826;49.784;9.934;2023-05-07T05:22:35;10.30;;;9.20;;
15449;SDS011;7826;49.784;9.934;2023-05-07T05:25:02;12.63;;;10.20;;
15449;SDS011;7826;49.784;9.934;2023-05-07T05:27:28;12.20;;;9.73;;
15449;SDS011;7826;49.784;9.934;2023-05-07T05:29:55;11.10;;;9.23;;
15449;SDS011;7826;49.784;9.934;2023-05-07T05:32:21;10.90;;;9.33;;
15449;SDS011;7826;49.784;9.934;2023-05-07T05:34:47;13.13;;;9.27;;
15449;SDS011;7826;49.784;9.934;2023-05-07T05:37:14;12.70;;;9.67;;
15449;SDS011;7826;49.784;9.934;2023-05-07T05:39:40;12.20;;;9.37;;
15449;SDS011;7826;49.784;9.934;2023-05-07T05:42:07;10.57;;;9.40;;
15449;SDS011;7826;49.784;9.934;2023-05-07T05:44:33;13.53;;;9.70;;
15449;SDS011;7826;49.784;9.934;2023-05-07T05:46:59;11.67;;;9.10;;
15449;SDS011;7826;49.784;9.934;2023-05-07T05:49:25;10.87;;;9.30;;
15449;SDS011;7826;49.784;9.934;2023-05-07T05:51:51;11.37;;;8.80;;
15449;SDS011;7826;49.784;9.934;2023-05-07T05:54:18;9.83;;;8.80;;
15449;SDS011;7826;49.784;9.934;2023-05-07T05:56:44;11.83;;;9.70;;
15449;SDS011;7826;49.784;9.934;2023-05-07T05:59:10;10.80;;;9.17;;
15449;SDS011;7826;49.784;9.934;2023-05-07T06:01:37;11.13;;;9.43;;
15449;SDS011;7826;49.784;9.934;2023-05-07T06:04:04;11.53;;;8.93;;
15449;SDS011;7826;49.784;9.934;2023-05-07T06:06:30;11.93;;;8.70;;
15449;SDS011;7826;49.784;9.934;2023-05-07T06:08:57;10.77;;;8.83;;
15449;SDS011;7826;49.784;9.934;2023-05-07T06:11:23;10.10;;;8.70;;
15449;SDS011;7826;49.784;9.934;2023-05-07T06:13:50;9.27;;;8.03;;
15449;SDS011;7826;49.784;9.934;2023-05-07T06:16:17;10.33;;;8.50;;
15449;SDS011;7826;49.784;9.934;2023-05-07T06:18:43;11.67;;;8.83;;
15449;SDS011;7826;49.784;9.934;2023-05-07T06:21:13;10.93;;;8.67;;
15449;SDS011;7826;49.784;9.934;2023-05-07T06:23:39;10.37;;;8.80;;
15449;SDS011;7826;49.784;9.934;2023-05-07T06:26:06;8.93;;;8.03;;
15449;SDS011;7826;49.784;9.934;2023-05-07T06:28:33;10.70;;;8.67;;
15449;SDS011;7826;49.784;9.934;2023-05-07T06:31:15;9.63;;;8.33;;
15449;SDS011;7826;49.784;9.934;2023-05-07T06:33:43;9.87;;;7.97;;
15449;SDS011;7826;49.784;9.934;2023-05-07T06:36:10;11.73;;;9.07;;
15449;SDS011;7826;49.784;9.934;2023-05-07T06:38:36;9.93;;;8.10;;
15449;SDS011;7826;49.784;9.934;2023-05-07T06:41:02;11.10;;;8.77;;
15449;SDS011;7826;49.784;9.934;2023-05-07T06:43:29;10.67;;;8.30;;
15449;SDS011;7826;49.784;9.934;2023-05-07T06:45:55;9.47;;;8.03;;
15449;SDS011;7826;49.784;9.934;2023-05-07T06:48:21;10.67;;;8.43;;
15449;SDS011;7826;49.784;9.934;2023-05-07T06:50:47;8.80;;;7.90;;
15449;SDS011;7826;49.784;9.934;2023-05-07T06:53:14;9.50;;;7.67;;
15449;SDS011;7826;49.784;9.934;2023-05-07T06:55:40;9.03;;;7.30;;
15449;SDS011;7826;49.784;9.934;2023-05-07T06:58:07;7.90;;;7.07;;
15449;SDS011;7826;49.784;9.934;2023-05-07T07:00:33;7.50;;;6.70;;
15449;SDS011;7826;49.784;9.934;2023-05-07T07:03:00;7.60;;;6.90;;
15449;SDS011;7826;49.784;9.934;2023-05-07T07:05:26;11.17;;;7.53;;
15449;SDS011;7826;49.784;9.934;2023-05-07T07:07:53;9.60;;;7.30;;
15449;SDS011;7826;49.784;9.934;2023-05-07T07:10:19;7.77;;;6.80;;
15449;SDS011;7826;49.784;9.934;2023-05-07T07:12:46;8.50;;;6.87;;
15449;SDS011;7826;49.784;9.934;2023-05-07T07:15:15;7.67;;;6.83;;
15449;SDS011;7826;49.784;9.934;2023-05-07T07:17:42;7.90;;;6.63;;
15449;SDS011;7826;49.784;9.934;2023-05-07T07:20:08;7.27;;;6.57;;
15449;SDS011;7826;49.784;9.934;2023-05-07T07:22:35;10.23;;;6.23;;
15449;SDS011;7826;49.784;9.934;2023-05-07T07:25:01;12.60;;;7.23;;
15449;SDS011;7826;49.784;9.934;2023-05-07T07:27:27;7.70;;;6.70;;
15449;SDS011;7826;49.784;9.934;2023-05-07T07:29:53;6.90;;;6.17;;
15449;SDS011;7826;49.784;9.934;2023-05-07T07:32:20;6.40;;;5.77;;
15449;SDS011;7826;49.784;9.934;2023-05-07T07:34:46;7.63;;;6.50;;
15449;SDS011;7826;49.784;9.934;2023-05-07T07:37:12;6.70;;;6.10;;
15449;SDS011;7826;49.784;9.934;2023-05-07T07:39:38;8.03;;;6.73;;
15449;SDS011;7826;49.784;9.934;2023-05-07T07:42:05;7.20;;;6.50;;
15449;SDS011;7826;49.784;9.934;2023-05-07T07:44:31;8.73;;;7.00;;
15449;SDS011;7826;49.784;9.934;2023-05-07T07:46:57;7.53;;;6.40;;
15449;SDS011;7826;49.784;9.934;2023-05-07T07:49:24;7.70;;;6.27;;
15449;SDS011;7826;49.784;9.934;2023-05-07T07:51:50;7.20;;;5.03;;
15449;SDS011;7826;49.784;9.934;2023-05-07T07:54:16;5.83;;;5.33;;
15449;SDS011;7826;49.784;9.934;2023-05-07T07:56:42;5.20;;;4.70;;
15449;SDS011;7826;49.784;9.934;2023-05-07T07:59:09;6.27;;;5.60;;
15449;SDS011;7826;49.784;9.934;2023-05-07T08:01:35;6.40;;;5.30;;
15449;SDS011;7826;49.784;9.934;2023-05-07T08:04:01;6.67;;;5.10;;
15449;SDS011;7826;49.784;9.934;2023-05-07T08:06:28;5.97;;;4.87;;
15449;SDS011;7826;49.784;9.934;2023-05-07T08:08:55;5.10;;;4.60;;
15449;SDS011;7826;49.784;9.934;2023-05-07T08:11:21;5.20;;;4.70;;
15449;SDS011;7826;49.784;9.934;2023-05-07T08:13:48;5.27;;;4.77;;
15449;SDS011;7826;49.784;9.934;2023-05-07T08:16:14;5.53;;;4.60;;
15449;SDS011;7826;49.784;9.934;2023-05-07T08:18:41;4.97;;;4.47;;
15449;SDS011;7826;49.784;9.934;2023-05-07T08:21:07;4.80;;;4.40;;
15449;SDS011;7826;49.784;9.934;2023-05-07T08:23:34;4.97;;;4.47;;
15449;SDS011;7826;49.784;9.934;2023-05-07T08:26:00;5.40;;;4.90;;
15449;SDS011;7826;49.784;9.934;2023-05-07T08:28:26;5.00;;;4.50;;
15449;SDS011;7826;49.784;9.934;2023-05-07T08:30:53;5.07;;;4.10;;
15449;SDS011;7826;49.784;9.934;2023-05-07T08:33:19;4.37;;;3.97;;
15449;SDS011;7826;49.784;9.934;2023-05-07T08:35:45;5.00;;;4.50;;
15449;SDS011;7826;49.784;9.934;2023-05-07T08:38:11;6.13;;;4.80;;
15449;SDS011;7826;49.784;9.934;2023-05-07T08:40:38;5.40;;;4.90;;
15449;SDS011;7826;49.784;9.934;2023-05-07T08:43:06;5.43;;;4.70;;
15449;SDS011;7826;49.784;9.934;2023-05-07T08:45:33;4.80;;;4.30;;
15449;SDS011;7826;49.784;9.934;2023-05-07T08:48:02;5.30;;;4.70;;
15449;SDS011;7826;49.784;9.934;2023-05-07T08:50:30;5.00;;;4.53;;
15449;SDS011;7826;49.784;9.934;2023-05-07T08:52:57;5.70;;;4.60;;
15449;SDS011;7826;49.784;9.934;2023-05-07T08:55:24;5.10;;;4.60;;
15449;SDS011;7826;49.784;9.934;2023-05-07T08:57:50;4.40;;;4.00;;
15449;SDS011;7826;49.784;9.934;2023-05-07T09:00:18;4.20;;;3.80;;
15449;SDS011;7826;49.784;9.934;2023-05-07T09:02:44;4.60;;;3.80;;
15449;SDS011;7826;49.784;9.934;2023-05-07T09:05:10;4.67;;;4.17;;
15449;SDS011;7826;49.784;9.934;2023-05-07T09:07:37;4.57;;;3.93;;
15449;SDS011;7826;49.784;9.934;2023-05-07T09:10:04;4.40;;;4.00;;
15449;SDS011;7826;49.784;9.934;2023-05-07T09:12:31;4.63;;;3.93;;
15449;SDS011;7826;49.784;9.934;2023-05-07T09:14:58;4.80;;;4.00;;
15449;SDS011;7826;49.784;9.934;2023-05-07T09:17:24;3.97;;;3.57;;
15449;SDS011;7826;49.784;9.934;2023-05-07T09:19:51;4.47;;;3.83;;
15449;SDS011;7826;49.784;9.934;2023-05-07T09:22:18;5.20;;;4.10;;
15449;SDS011;7826;49.784;9.934;2023-05-07T09:24:49;4.00;;;3.60;;
15449;SDS011;7826;49.784;9.934;2023-05-07T09:27:17;4.03;;;3.57;;
15449;SDS011;7826;49.784;9.934;2023-05-07T09:29:43;3.77;;;3.40;;
15449;SDS011;7826;49.784;9.934;2023-05-07T09:32:10;4.67;;;3.73;;
15449;SDS011;7826;49.784;9.934;2023-05-07T09:34:36;4.17;;;3.83;;
15449;SDS011;7826;49.784;9.934;2023-05-07T09:37:04;3.60;;;3.30;;
15449;SDS011;7826;49.784;9.934;2023-05-07T09:39:47;4.60;;;3.50;;
15449;SDS011;7826;49.784;9.934;2023-05-07T09:42:15;5.70;;;3.60;;
15449;SDS011;7826;49.784;9.934;2023-05-07T09:44:41;4.37;;;3.77;;
15449;SDS011;7826;49.784;9.934;2023-05-07T09:47:09;3.37;;;3.07;;
15449;SDS011;7826;49.784;9.934;2023-05-07T09:49:37;4.20;;;3.20;;
15449;SDS011;7826;49.784;9.934;2023-05-07T09:52:07;3.53;;;3.23;;
15449;SDS011;7826;49.784;9.934;2023-05-07T09:54:36;4.80;;;2.97;;
15449;SDS011;7826;49.784;9.934;2023-05-07T09:57:09;4.00;;;3.60;;
15449;SDS011;7826;49.784;9.934;2023-05-07T09:59:37;5.97;;;5.23;;
15449;SDS011;7826;49.784;9.934;2023-05-07T10:02:05;3.30;;;3.00;;
15449;SDS011;7826;49.784;9.934;2023-05-07T10:04:31;3.40;;;3.10;;
15449;SDS011;7826;49.784;9.934;2023-05-07T10:06:59;3.50;;;3.13;;
15449;SDS011;7826;49.784;9.934;2023-05-07T10:09:26;4.87;;;4.37;;
15449;SDS011;7826;49.784;9.934;2023-05-07T10:11:52;4.33;;;3.40;;
15449;SDS011;7826;49.784;9.934;2023-05-07T10:14:20;3.87;;;3.57;;
15449;SDS011;7826;49.784;9.934;2023-05-07T10:16:47;3.63;;;3.23;;
15449;SDS011;7826;49.784;9.934;2023-05-07T10:19:14;3.53;;;3.23;;
15449;SDS011;7826;49.784;9.934;2023-05-07T10:21:44;3.50;;;2.90;;
15449;SDS011;7826;49.784;9.934;2023-05-07T10:24:21;4.07;;;3.43;;
15449;SDS011;7826;49.784;9.934;2023-05-07T10:26:51;4.33;;;3.93;;
15449;SDS011;7826;49.784;9.934;2023-05-07T10:29:21;4.27;;;3.37;;
15449;SDS011;7826;49.784;9.934;2023-05-07T10:34:45;3.77;;;3.20;;
15449;SDS011;7826;49.784;9.934;2023-05-07T10:37:14;3.90;;;3.00;;
15449;SDS011;7826;49.784;9.934;2023-05-07T10:39:41;3.50;;;3.20;;
15449;SDS011;7826;49.784;9.934;2023-05-07T10:42:10;5.57;;;4.43;;
15449;SDS011;7826;49.784;9.934;2023-05-07T10:44:38;4.70;;;3.30;;
15449;SDS011;7826;49.784;9.934;2023-05-07T10:47:12;3.63;;;2.93;;
15449;SDS011;7826;49.784;9.934;2023-05-07T10:52:16;2.83;;;2.63;;
15449;SDS011;7826;49.784;9.934;2023-05-07T10:57:43;3.33;;;2.90;;
15449;SDS011;7826;49.784;9.934;2023-05-07T11:05:26;3.17;;;2.90;;
15449;SDS011;7826;49.784;9.934;2023-05-07T11:07:55;2.97;;;2.77;;
15449;SDS011;7826;49.784;9.934;2023-05-07T11:10:48;3.20;;;2.50;;
15449;SDS011;7826;49.784;9.934;2023-05-07T11:13:14;3.07;;;2.77;;
15449;SDS011;7826;49.784;9.934;2023-05-07T11:15:42;3.23;;;3.00;;
15449;SDS011;7826;49.784;9.934;2023-05-07T11:18:13;2.60;;;2.40;;
15449;SDS011;7826;49.784;9.934;2023-05-07T11:26:03;3.40;;;3.10;;
15449;SDS011;7826;49.784;9.934;2023-05-07T11:28:32;3.57;;;3.37;;
15449;SDS011;7826;49.784;9.934;2023-05-07T11:31:03;3.30;;;3.00;;
15449;SDS011;7826;49.784;9.934;2023-05-07T11:33:30;3.80;;;3.10;;
15449;SDS011;7826;49.784;9.934;2023-05-07T11:35:57;5.73;;;3.60;;
15449;SDS011;7826;49.784;9.934;2023-05-07T11:38:25;3.70;;;3.40;;
15449;SDS011;7826;49.784;9.934;2023-05-07T11:40:52;4.87;;;3.03;;
15449;SDS011;7826;49.784;9.934;2023-05-07T11:43:19;3.63;;;3.33;;
15449;SDS011;7826;49.784;9.934;2023-05-07T11:45:46;2.90;;;2.70;;
15449;SDS011;7826;49.784;9.934;2023-05-07T11:48:13;3.13;;;2.83;;
15449;SDS011;7826;49.784;9.934;2023-05-07T11:50:50;2.80;;;2.60;;
15449;SDS011;7826;49.784;9.934;2023-05-07T11:53:18;2.90;;;2.70;;
15449;SDS011;7826;49.784;9.934;2023-05-07T11:55:46;2.97;;;2.73;;
15449;SDS011;7826;49.784;9.934;2023-05-07T11:58:12;3.57;;;3.27;;
15449;SDS011;7826;49.784;9.934;2023-05-07T12:00:49;3.33;;;3.10;;
15449;SDS011;7826;49.784;9.934;2023-05-07T12:03:16;3.57;;;3.27;;
15449;SDS011;7826;49.784;9.934;2023-05-07T12:05:46;3.07;;;2.83;;
15449;SDS011;7826;49.784;9.934;2023-05-07T12:08:14;3.33;;;3.13;;
15449;SDS011;7826;49.784;9.934;2023-05-07T12:10:42;3.80;;;3.03;;
15449;SDS011;7826;49.784;9.934;2023-05-07T12:15:45;3.43;;;2.90;;
15449;SDS011;7826;49.784;9.934;2023-05-07T12:18:11;3.43;;;2.93;;
15449;SDS011;7826;49.784;9.934;2023-05-07T12:20:38;2.93;;;2.67;;
15449;SDS011;7826;49.784;9.934;2023-05-07T12:23:05;3.27;;;2.97;;
15449;SDS011;7826;49.784;9.934;2023-05-07T12:25:32;2.70;;;2.50;;
15449;SDS011;7826;49.784;9.934;2023-05-07T12:28:01;3.97;;;2.80;;
15449;SDS011;7826;49.784;9.934;2023-05-07T12:30:39;3.77;;;3.30;;
15449;SDS011;7826;49.784;9.934;2023-05-07T12:33:06;3.30;;;3.10;;
15449;SDS011;7826;49.784;9.934;2023-05-07T12:35:40;3.03;;;2.83;;
15449;SDS011;7826;49.784;9.934;2023-05-07T12:38:09;2.73;;;2.53;;
15449;SDS011;7826;49.784;9.934;2023-05-07T12:40:37;2.67;;;2.47;;
15449;SDS011;7826;49.784;9.934;2023-05-07T12:43:05;2.70;;;2.50;;
15449;SDS011;7826;49.784;9.934;2023-05-07T12:45:32;2.70;;;2.50;;
15449;SDS011;7826;49.784;9.934;2023-05-07T12:48:04;2.73;;;2.53;;
15449;SDS011;7826;49.784;9.934;2023-05-07T12:50:31;3.20;;;2.40;;
15449;SDS011;7826;49.784;9.934;2023-05-07T12:52:58;2.60;;;2.23;;
15449;SDS011;7826;49.784;9.934;2023-05-07T12:55:25;2.70;;;2.37;;
15449;SDS011;7826;49.784;9.934;2023-05-07T12:57:52;2.80;;;2.47;;
15449;SDS011;7826;49.784;9.934;2023-05-07T13:00:35;2.40;;;2.27;;
15449;SDS011;7826;49.784;9.934;2023-05-07T13:03:02;2.43;;;2.33;;
15449;SDS011;7826;49.784;9.934;2023-05-07T13:05:29;2.60;;;2.40;;
15449;SDS011;7826;49.784;9.934;2023-05-07T13:07:55;2.57;;;2.43;;
15449;SDS011;7826;49.784;9.934;2023-05-07T13:10:22;2.80;;;2.60;;
15449;SDS011;7826;49.784;9.934;2023-05-07T13:12:49;3.23;;;2.50;;
15449;SDS011;7826;49.784;9.934;2023-05-07T13:15:15;3.00;;;2.60;;
15449;SDS011;7826;49.784;9.934;2023-05-07T13:17:43;2.80;;;2.60;;
15449;SDS011;7826;49.784;9.934;2023-05-07T13:20:09;2.43;;;2.33;;
15449;SDS011;7826;49.784;9.934;2023-05-07T13:22:37;2.47;;;2.23;;
15449;SDS011;7826;49.784;9.934;2023-05-07T13:25:03;2.80;;;2.60;;
15449;SDS011;7826;49.784;9.934;2023-05-07T13:27:30;2.43;;;2.23;;
15449;SDS011;7826;49.784;9.934;2023-05-07T13:29:56;2.50;;;2.30;;
15449;SDS011;7826;49.784;9.934;2023-05-07T13:32:23;2.50;;;2.30;;
15449;SDS011;7826;49.784;9.934;2023-05-07T13:34:49;2.93;;;2.37;;
15449;SDS011;7826;49.784;9.934;2023-05-07T13:37:15;3.17;;;2.67;;
15449;SDS011;7826;49.784;9.934;2023-05-07T13:39:42;2.10;;;2.00;;
15449;SDS011;7826;49.784;9.934;2023-05-07T13:42:08;2.37;;;2.03;;
15449;SDS011;7826;49.784;9.934;2023-05-07T13:44:34;3.30;;;2.00;;
15449;SDS011;7826;49.784;9.934;2023-05-07T13:47:00;2.20;;;2.10;;
15449;SDS011;7826;49.784;9.934;2023-05-07T13:49:27;3.83;;;2.40;;
15449;SDS011;7826;49.784;9.934;2023-05-07T13:51:53;2.10;;;2.00;;
15449;SDS011;7826;49.784;9.934;2023-05-07T13:54:20;2.50;;;2.30;;
15449;SDS011;7826;49.784;9.934;2023-05-07T13:56:46;2.23;;;2.13;;
15449;SDS011;7826;49.784;9.934;2023-05-07T13:59:12;3.10;;;2.40;;
15449;SDS011;7826;49.784;9.934;2023-05-07T14:01:40;2.00;;;1.90;;
15449;SDS011;7826;49.784;9.934;2023-05-07T14:04:06;2.20;;;2.00;;
15449;SDS011;7826;49.784;9.934;2023-05-07T14:06:33;2.10;;;1.90;;
15449;SDS011;7826;49.784;9.934;2023-05-07T14:08:59;2.13;;;2.03;;
15449;SDS011;7826;49.784;9.934;2023-05-07T14:11:25;2.23;;;2.10;;
15449;SDS011;7826;49.784;9.934;2023-05-07T14:13:52;2.27;;;2.17;;
15449;SDS011;7826;49.784;9.934;2023-05-07T14:16:18;2.73;;;1.90;;
15449;SDS011;7826;49.784;9.934;2023-05-07T14:18:44;2.00;;;1.90;;
15449;SDS011;7826;49.784;9.934;2023-05-07T14:21:10;2.53;;;2.10;;
15449;SDS011;7826;49.784;9.934;2023-05-07T14:23:37;3.07;;;2.10;;
15449;SDS011;7826;49.784;9.934;2023-05-07T14:26:03;2.20;;;2.10;;
15449;SDS011;7826;49.784;9.934;2023-05-07T14:28:29;2.77;;;2.10;;
15449;SDS011;7826;49.784;9.934;2023-05-07T14:30:55;2.90;;;2.20;;
15449;SDS011;7826;49.784;9.934;2023-05-07T14:33:22;2.53;;;1.90;;
15449;SDS011;7826;49.784;9.934;2023-05-07T14:35:48;2.40;;;2.20;;
15449;SDS011;7826;49.784;9.934;2023-05-07T14:38:15;1.87;;;1.77;;
15449;SDS011;7826;49.784;9.934;2023-05-07T14:40:42;2.60;;;2.30;;
15449;SDS011;7826;49.784;9.934;2023-05-07T14:43:08;2.17;;;2.07;;
15449;SDS011;7826;49.784;9.934;2023-05-07T14:45:34;2.23;;;1.90;;
15449;SDS011;7826;49.784;9.934;2023-05-07T14:48:00;2.03;;;1.93;;
15449;SDS011;7826;49.784;9.934;2023-05-07T14:50:27;2.10;;;2.00;;
15449;SDS011;7826;49.784;9.934;2023-05-07T14:52:53;3.97;;;2.10;;
15449;SDS011;7826;49.784;9.934;2023-05-07T14:55:19;2.83;;;2.07;;
15449;SDS011;7826;49.784;9.934;2023-05-07T14:57:45;2.20;;;2.00;;
15449;SDS011;7826;49.784;9.934;2023-05-07T15:00:12;2.47;;;2.20;;
15449;SDS011;7826;49.784;9.934;2023-05-07T15:02:39;2.33;;;2.23;;
15449;SDS011;7826;49.784;9.934;2023-05-07T15:05:05;2.17;;;2.05;;
15449;SDS011;7826;49.784;9.934;2023-05-07T15:07:32;2.10;;;1.93;;
15449;SDS011;7826;49.784;9.934;2023-05-07T15:09:59;2.00;;;1.90;;
15449;SDS011;7826;49.784;9.934;2023-05-07T15:12:26;3.73;;;1.93;;
15449;SDS011;7826;49.784;9.934;2023-05-07T15:14:52;2.83;;;1.93;;
15449;SDS011;7826;49.784;9.934;2023-05-07T15:17:18;2.17;;;2.07;;